Main page
METAR-TAF:

METAR-TAF

Airports :

Cairo International Airport

Cairo, Egypt

latitude: 30-08N, longitude: 031-24E, elevation: 64 m

Current weather observation

The report was made 7 minutes ago, at 21:30 UTC
Wind 6 kt from the East/Northeast
Temperature 23°C
Humidity 44%
Pressure 1017 hPa
Visibility 10 km or more
no clouds below 1500 m and no cumulonimbus

METAR: HECA 222130Z 06006KT CAVOK 23/10 Q1017 NOSIG

Time: 23:37 (21:37 UTC)

Forecast

The report was made 4 hours and 37 minutes ago, at 17:00 UTC
Forecast valid from 22 at 18 UTC to 23 at 24 UTC
Wind 12 kt from the Northeast
Visibility 10 km or more
no clouds below 1500 m and no cumulonimbus
Temporary
from 23 at 00 UTC to 23 at 08 UTC
Wind 3 kt from variable directions
Visibility: 3000 m
haze,

TAF: HECA 221700Z 2218/2324 04012KT CAVOK TEMPO 2300/2308 VRB03KT 3000 HZ NSC

Weather observations and forecasts of more than 4000 airports (METAR and TAF reports).

The available stations are represented by yellow and red dots on the map.

Hover mouse over dot to see the name of the station.

Then click to see weather observations and forecasts.

To change the map : click on the green buttons with a black cross to zoom in, on the green button with a dash to zoom out, or on the green arrows for adjacent maps.


METAR-TAF: